sensor_id;sensor_type;location;lat;lon;timestamp;temperature;humidity
35244;DHT22;37916;52.160;21.066;2022-09-09T00:31:26;11.10;90.20
35244;DHT22;37916;52.160;21.066;2022-09-09T00:41:57;11.10;90.50
35244;DHT22;37916;52.160;21.066;2022-09-09T01:02:39;11.20;91.20
35244;DHT22;37916;52.160;21.066;2022-09-09T01:12:47;11.30;91.60
35244;DHT22;37916;52.160;21.066;2022-09-09T01:22:58;11.30;91.70
35244;DHT22;37916;52.160;21.066;2022-09-09T01:33:03;11.30;91.70
35244;DHT22;37916;52.160;21.066;2022-09-09T01:43:04;11.30;91.60
35244;DHT22;37916;52.160;21.066;2022-09-09T01:53:05;11.40;91.90
35244;DHT22;37916;52.160;21.066;2022-09-09T02:03:09;11.40;91.80
35244;DHT22;37916;52.160;21.066;2022-09-09T02:13:14;11.40;91.90
35244;DHT22;37916;52.160;21.066;2022-09-09T02:23:16;11.50;91.90
35244;DHT22;37916;52.160;21.066;2022-09-09T02:33:18;11.40;91.70
35244;DHT22;37916;52.160;21.066;2022-09-09T02:43:19;11.50;91.50
35244;DHT22;37916;52.160;21.066;2022-09-09T02:53:32;11.50;91.80
35244;DHT22;37916;52.160;21.066;2022-09-09T03:03:38;11.60;91.90
35244;DHT22;37916;52.160;21.066;2022-09-09T03:13:38;11.50;92.10
35244;DHT22;37916;52.160;21.066;2022-09-09T03:23:39;11.50;92.00
35244;DHT22;37916;52.160;21.066;2022-09-09T03:33:40;11.50;92.00
35244;DHT22;37916;52.160;21.066;2022-09-09T03:43:41;11.50;92.20
35244;DHT22;37916;52.160;21.066;2022-09-09T03:53:42;11.50;92.00
35244;DHT22;37916;52.160;21.066;2022-09-09T04:03:44;11.60;92.40
35244;DHT22;37916;52.160;21.066;2022-09-09T04:13:48;11.60;92.30
35244;DHT22;37916;52.160;21.066;2022-09-09T04:23:49;11.70;92.30
35244;DHT22;37916;52.160;21.066;2022-09-09T04:33:50;11.70;92.10
35244;DHT22;37916;52.160;21.066;2022-09-09T04:43:51;11.70;92.10
35244;DHT22;37916;52.160;21.066;2022-09-09T04:53:52;11.80;92.10
35244;DHT22;37916;52.160;21.066;2022-09-09T05:03:56;11.80;92.30
35244;DHT22;37916;52.160;21.066;2022-09-09T05:13:57;11.80;92.20
35244;DHT22;37916;52.160;21.066;2022-09-09T05:23:58;11.90;92.50
35244;DHT22;37916;52.160;21.066;2022-09-09T05:34:00;11.90;92.30
35244;DHT22;37916;52.160;21.066;2022-09-09T05:44:01;12.00;92.50
35244;DHT22;37916;52.160;21.066;2022-09-09T05:54:05;12.10;92.50
35244;DHT22;37916;52.160;21.066;2022-09-09T06:04:07;12.10;92.40
35244;DHT22;37916;52.160;21.066;2022-09-09T06:14:08;12.20;92.50
35244;DHT22;37916;52.160;21.066;2022-09-09T06:24:09;12.30;92.70
35244;DHT22;37916;52.160;21.066;2022-09-09T06:34:10;12.40;92.40
35244;DHT22;37916;52.160;21.066;2022-09-09T06:44:11;12.50;92.60
35244;DHT22;37916;52.160;21.066;2022-09-09T06:54:12;12.60;92.30
35244;DHT22;37916;52.160;21.066;2022-09-09T07:04:16;12.80;92.70
35244;DHT22;37916;52.160;21.066;2022-09-09T07:14:17;12.90;92.50
35244;DHT22;37916;52.160;21.066;2022-09-09T07:24:18;12.90;92.30
35244;DHT22;37916;52.160;21.066;2022-09-09T07:34:18;12.90;92.30
35244;DHT22;37916;52.160;21.066;2022-09-09T07:44:22;13.10;92.40
35244;DHT22;37916;52.160;21.066;2022-09-09T07:54:23;13.20;91.20
35244;DHT22;37916;52.160;21.066;2022-09-09T08:04:25;13.50;92.20
35244;DHT22;37916;52.160;21.066;2022-09-09T08:14:26;13.50;91.30
35244;DHT22;37916;52.160;21.066;2022-09-09T08:24:27;13.60;91.20
35244;DHT22;37916;52.160;21.066;2022-09-09T08:34:28;13.90;91.70
35244;DHT22;37916;52.160;21.066;2022-09-09T08:45:04;13.90;90.90
35244;DHT22;37916;52.160;21.066;2022-09-09T09:05:35;13.90;90.90
35244;DHT22;37916;52.160;21.066;2022-09-09T09:15:46;14.30;91.40
35244;DHT22;37916;52.160;21.066;2022-09-09T09:25:47;14.00;88.90
35244;DHT22;37916;52.160;21.066;2022-09-09T09:35:51;14.20;89.90
35244;DHT22;37916;52.160;21.066;2022-09-09T09:45:53;14.30;89.00
35244;DHT22;37916;52.160;21.066;2022-09-09T09:56:07;14.30;89.00
35244;DHT22;37916;52.160;21.066;2022-09-09T10:06:08;14.20;88.20
35244;DHT22;37916;52.160;21.066;2022-09-09T10:16:25;14.10;88.80
35244;DHT22;37916;52.160;21.066;2022-09-09T10:37:40;14.90;88.10
35244;DHT22;37916;52.160;21.066;2022-09-09T10:58:19;15.00;87.30
35244;DHT22;37916;52.160;21.066;2022-09-09T11:08:24;15.20;87.40
35244;DHT22;37916;52.160;21.066;2022-09-09T11:18:29;15.20;87.70
35244;DHT22;37916;52.160;21.066;2022-09-09T11:39:28;15.70;88.10
35244;DHT22;37916;52.160;21.066;2022-09-09T11:49:41;15.70;87.40
35244;DHT22;37916;52.160;21.066;2022-09-09T11:59:50;15.50;85.10
35244;DHT22;37916;52.160;21.066;2022-09-09T12:30:31;15.80;87.20
35244;DHT22;37916;52.160;21.066;2022-09-09T12:40:34;15.40;85.80
35244;DHT22;37916;52.160;21.066;2022-09-09T12:50:49;15.70;86.10
35244;DHT22;37916;52.160;21.066;2022-09-09T13:00:55;15.10;86.60
35244;DHT22;37916;52.160;21.066;2022-09-09T13:11:02;15.00;87.20
35244;DHT22;37916;52.160;21.066;2022-09-09T13:21:04;15.30;87.30
35244;DHT22;37916;52.160;21.066;2022-09-09T13:31:18;15.10;87.00
35244;DHT22;37916;52.160;21.066;2022-09-09T13:41:24;15.10;87.80
35244;DHT22;37916;52.160;21.066;2022-09-09T13:51:48;15.10;88.20
35244;DHT22;37916;52.160;21.066;2022-09-09T14:01:51;15.10;86.80
35244;DHT22;37916;52.160;21.066;2022-09-09T14:11:55;15.00;86.90
35244;DHT22;37916;52.160;21.066;2022-09-09T14:21:56;15.20;87.60
35244;DHT22;37916;52.160;21.066;2022-09-09T14:31:59;15.30;85.30
35244;DHT22;37916;52.160;21.066;2022-09-09T14:52:11;15.20;86.20
35244;DHT22;37916;52.160;21.066;2022-09-09T15:02:19;15.60;85.90
35244;DHT22;37916;52.160;21.066;2022-09-09T15:22:50;15.90;84.90
35244;DHT22;37916;52.160;21.066;2022-09-09T15:32:53;15.50;84.90
35244;DHT22;37916;52.160;21.066;2022-09-09T15:42:53;15.50;84.70
35244;DHT22;37916;52.160;21.066;2022-09-09T15:52:54;15.70;85.00
35244;DHT22;37916;52.160;21.066;2022-09-09T16:02:55;15.30;85.20
35244;DHT22;37916;52.160;21.066;2022-09-09T16:12:55;15.30;85.80
35244;DHT22;37916;52.160;21.066;2022-09-09T16:22:56;15.30;85.20
35244;DHT22;37916;52.160;21.066;2022-09-09T16:32:57;15.30;85.40
35244;DHT22;37916;52.160;21.066;2022-09-09T16:42:58;15.20;86.10
35244;DHT22;37916;52.160;21.066;2022-09-09T16:52:58;15.00;86.30
35244;DHT22;37916;52.160;21.066;2022-09-09T17:03:05;14.70;87.00
35244;DHT22;37916;52.160;21.066;2022-09-09T17:13:46;14.70;86.90
35244;DHT22;37916;52.160;21.066;2022-09-09T17:45:55;14.40;87.60
35244;DHT22;37916;52.160;21.066;2022-09-09T17:56:02;14.40;87.10
35244;DHT22;37916;52.160;21.066;2022-09-09T18:06:04;14.40;87.20
35244;DHT22;37916;52.160;21.066;2022-09-09T18:16:09;14.50;87.20
35244;DHT22;37916;52.160;21.066;2022-09-09T18:26:15;14.60;86.40
35244;DHT22;37916;52.160;21.066;2022-09-09T18:36:22;14.60;86.20
35244;DHT22;37916;52.160;21.066;2022-09-09T18:46:25;14.50;86.50
35244;DHT22;37916;52.160;21.066;2022-09-09T18:56:54;14.50;86.60
35244;DHT22;37916;52.160;21.066;2022-09-09T19:07:00;14.40;87.00
35244;DHT22;37916;52.160;21.066;2022-09-09T19:17:06;14.50;86.40
35244;DHT22;37916;52.160;21.066;2022-09-09T19:27:09;14.30;86.70
35244;DHT22;37916;52.160;21.066;2022-09-09T19:37:24;14.40;86.20
35244;DHT22;37916;52.160;21.066;2022-09-09T19:47:25;14.40;86.90
35244;DHT22;37916;52.160;21.066;2022-09-09T19:57:28;14.20;87.20
35244;DHT22;37916;52.160;21.066;2022-09-09T20:07:30;14.40;87.20
35244;DHT22;37916;52.160;21.066;2022-09-09T20:17:30;14.40;86.30
35244;DHT22;37916;52.160;21.066;2022-09-09T20:27:31;14.20;86.90
35244;DHT22;37916;52.160;21.066;2022-09-09T20:48:33;14.10;87.30
35244;DHT22;37916;52.160;21.066;2022-09-09T20:58:34;14.20;87.20
35244;DHT22;37916;52.160;21.066;2022-09-09T21:08:35;14.10;87.00
35244;DHT22;37916;52.160;21.066;2022-09-09T21:18:36;14.10;87.10
35244;DHT22;37916;52.160;21.066;2022-09-09T21:28:37;14.10;87.40
35244;DHT22;37916;52.160;21.066;2022-09-09T21:38:38;14.00;88.00
35244;DHT22;37916;52.160;21.066;2022-09-09T21:48:44;13.90;88.00
35244;DHT22;37916;52.160;21.066;2022-09-09T21:58:54;14.00;88.00
35244;DHT22;37916;52.160;21.066;2022-09-09T22:08:57;13.80;88.20
35244;DHT22;37916;52.160;21.066;2022-09-09T22:18:59;13.70;88.40
35244;DHT22;37916;52.160;21.066;2022-09-09T22:29:03;13.60;88.40
35244;DHT22;37916;52.160;21.066;2022-09-09T22:39:04;13.50;89.00
35244;DHT22;37916;52.160;21.066;2022-09-09T22:49:05;13.50;88.90
35244;DHT22;37916;52.160;21.066;2022-09-09T22:59:06;13.50;88.70
35244;DHT22;37916;52.160;21.066;2022-09-09T23:09:09;13.40;88.60
35244;DHT22;37916;52.160;21.066;2022-09-09T23:19:14;13.40;88.50
35244;DHT22;37916;52.160;21.066;2022-09-09T23:29:15;13.40;88.70
35244;DHT22;37916;52.160;21.066;2022-09-09T23:39:16;13.30;88.90
35244;DHT22;37916;52.160;21.066;2022-09-09T23:49:16;13.30;88.80
35244;DHT22;37916;52.160;21.066;2022-09-09T23:59:17;13.20;88.80
